sensor_id;sensor_type;location;lat;lon;timestamp;P1;durP1;ratioP1;P2;durP2;ratioP2
11524;SDS011;5819;49.648;8.330;2023-12-22T00:01:35;0.43;;;0.10;;
11524;SDS011;5819;49.648;8.330;2023-12-22T00:04:04;0.73;;;0.17;;
11524;SDS011;5819;49.648;8.330;2023-12-22T00:06:33;1.70;;;0.10;;
11524;SDS011;5819;49.648;8.330;2023-12-22T00:09:03;0.35;;;0.00;;
11524;SDS011;5819;49.648;8.330;2023-12-22T00:11:31;0.20;;;0.00;;
11524;SDS011;5819;49.648;8.330;2023-12-22T00:14:00;2.03;;;0.10;;
11524;SDS011;5819;49.648;8.330;2023-12-22T00:16:28;0.63;;;0.10;;
11524;SDS011;5819;49.648;8.330;2023-12-22T00:18:56;0.50;;;0.20;;
11524;SDS011;5819;49.648;8.330;2023-12-22T00:21:24;0.63;;;0.10;;
11524;SDS011;5819;49.648;8.330;2023-12-22T00:23:54;1.60;;;0.10;;
11524;SDS011;5819;49.648;8.330;2023-12-22T00:26:24;0.55;;;0.20;;
11524;SDS011;5819;49.648;8.330;2023-12-22T00:28:52;0.40;;;0.10;;
11524;SDS011;5819;49.648;8.330;2023-12-22T00:31:20;0.30;;;0.10;;
11524;SDS011;5819;49.648;8.330;2023-12-22T00:33:48;0.20;;;0.05;;
11524;SDS011;5819;49.648;8.330;2023-12-22T00:36:16;0.20;;;0.00;;
11524;SDS011;5819;49.648;8.330;2023-12-22T00:38:49;0.20;;;0.00;;
11524;SDS011;5819;49.648;8.330;2023-12-22T00:41:17;0.63;;;0.10;;
11524;SDS011;5819;49.648;8.330;2023-12-22T00:43:46;0.20;;;0.10;;
11524;SDS011;5819;49.648;8.330;2023-12-22T00:46:14;0.20;;;0.05;;
11524;SDS011;5819;49.648;8.330;2023-12-22T00:48:42;0.38;;;0.20;;
11524;SDS011;5819;49.648;8.330;2023-12-22T00:51:10;1.20;;;0.20;;
11524;SDS011;5819;49.648;8.330;2023-12-22T00:53:38;0.60;;;0.10;;
11524;SDS011;5819;49.648;8.330;2023-12-22T00:56:07;0.70;;;0.28;;
11524;SDS011;5819;49.648;8.330;2023-12-22T00:58:35;1.35;;;0.30;;
11524;SDS011;5819;49.648;8.330;2023-12-22T01:01:05;2.40;;;0.40;;
11524;SDS011;5819;49.648;8.330;2023-12-22T01:03:33;1.52;;;0.70;;
11524;SDS011;5819;49.648;8.330;2023-12-22T01:06:01;0.77;;;0.30;;
11524;SDS011;5819;49.648;8.330;2023-12-22T01:08:29;3.33;;;0.50;;
11524;SDS011;5819;49.648;8.330;2023-12-22T01:10:57;1.40;;;0.50;;
11524;SDS011;5819;49.648;8.330;2023-12-22T01:13:25;1.65;;;0.32;;
11524;SDS011;5819;49.648;8.330;2023-12-22T01:15:53;4.20;;;0.70;;
11524;SDS011;5819;49.648;8.330;2023-12-22T01:18:22;2.95;;;0.77;;
11524;SDS011;5819;49.648;8.330;2023-12-22T01:20:55;3.78;;;0.70;;
11524;SDS011;5819;49.648;8.330;2023-12-22T01:23:23;2.40;;;0.77;;
11524;SDS011;5819;49.648;8.330;2023-12-22T01:25:52;4.80;;;0.80;;
11524;SDS011;5819;49.648;8.330;2023-12-22T01:28:20;3.22;;;1.15;;
11524;SDS011;5819;49.648;8.330;2023-12-22T01:30:48;5.30;;;0.93;;
11524;SDS011;5819;49.648;8.330;2023-12-22T01:33:16;10.45;;;2.35;;
11524;SDS011;5819;49.648;8.330;2023-12-22T01:35:46;5.10;;;1.20;;
11524;SDS011;5819;49.648;8.330;2023-12-22T01:38:14;6.07;;;1.38;;
11524;SDS011;5819;49.648;8.330;2023-12-22T01:40:42;5.50;;;1.27;;
11524;SDS011;5819;49.648;8.330;2023-12-22T01:43:11;4.93;;;1.75;;
11524;SDS011;5819;49.648;8.330;2023-12-22T01:45:39;6.43;;;1.88;;
11524;SDS011;5819;49.648;8.330;2023-12-22T01:48:10;6.28;;;1.48;;
11524;SDS011;5819;49.648;8.330;2023-12-22T01:50:38;7.78;;;1.60;;
11524;SDS011;5819;49.648;8.330;2023-12-22T01:53:07;4.60;;;1.27;;
11524;SDS011;5819;49.648;8.330;2023-12-22T01:55:35;7.63;;;1.65;;
11524;SDS011;5819;49.648;8.330;2023-12-22T01:58:03;6.07;;;1.52;;
11524;SDS011;5819;49.648;8.330;2023-12-22T02:00:32;7.78;;;1.60;;
11524;SDS011;5819;49.648;8.330;2023-12-22T02:03:00;6.82;;;1.67;;
11524;SDS011;5819;49.648;8.330;2023-12-22T02:05:29;4.95;;;1.30;;
11524;SDS011;5819;49.648;8.330;2023-12-22T02:07:56;6.60;;;1.30;;
11524;SDS011;5819;49.648;8.330;2023-12-22T02:10:26;4.95;;;1.77;;
11524;SDS011;5819;49.648;8.330;2023-12-22T02:12:54;5.57;;;1.10;;
11524;SDS011;5819;49.648;8.330;2023-12-22T02:15:23;7.25;;;1.38;;
11524;SDS011;5819;49.648;8.330;2023-12-22T02:17:52;6.72;;;1.50;;
11524;SDS011;5819;49.648;8.330;2023-12-22T02:20:26;3.38;;;0.90;;
11524;SDS011;5819;49.648;8.330;2023-12-22T02:22:55;2.45;;;1.00;;
11524;SDS011;5819;49.648;8.330;2023-12-22T02:25:23;2.72;;;0.80;;
11524;SDS011;5819;49.648;8.330;2023-12-22T02:27:53;2.85;;;0.65;;
11524;SDS011;5819;49.648;8.330;2023-12-22T02:30:26;3.22;;;0.60;;
11524;SDS011;5819;49.648;8.330;2023-12-22T02:32:59;2.80;;;0.80;;
11524;SDS011;5819;49.648;8.330;2023-12-22T02:35:32;5.03;;;0.80;;
11524;SDS011;5819;49.648;8.330;2023-12-22T02:38:04;3.45;;;0.93;;
11524;SDS011;5819;49.648;8.330;2023-12-22T02:40:34;6.07;;;0.95;;
11524;SDS011;5819;49.648;8.330;2023-12-22T02:43:03;3.13;;;0.82;;
11524;SDS011;5819;49.648;8.330;2023-12-22T02:45:33;4.18;;;1.17;;
11524;SDS011;5819;49.648;8.330;2023-12-22T02:48:01;3.22;;;1.30;;
11524;SDS011;5819;49.648;8.330;2023-12-22T02:50:29;5.45;;;1.73;;
11524;SDS011;5819;49.648;8.330;2023-12-22T02:52:57;3.47;;;0.93;;
11524;SDS011;5819;49.648;8.330;2023-12-22T02:55:26;7.10;;;1.40;;
11524;SDS011;5819;49.648;8.330;2023-12-22T02:57:54;5.07;;;1.38;;
11524;SDS011;5819;49.648;8.330;2023-12-22T03:00:22;5.45;;;1.23;;
11524;SDS011;5819;49.648;8.330;2023-12-22T03:02:49;3.08;;;1.02;;
11524;SDS011;5819;49.648;8.330;2023-12-22T03:05:18;4.28;;;0.95;;
11524;SDS011;5819;49.648;8.330;2023-12-22T03:07:46;5.85;;;1.20;;
11524;SDS011;5819;49.648;8.330;2023-12-22T03:10:15;5.50;;;1.00;;
11524;SDS011;5819;49.648;8.330;2023-12-22T03:12:45;5.50;;;1.20;;
11524;SDS011;5819;49.648;8.330;2023-12-22T03:15:13;3.88;;;1.10;;
11524;SDS011;5819;49.648;8.330;2023-12-22T03:17:41;4.15;;;1.15;;
11524;SDS011;5819;49.648;8.330;2023-12-22T03:20:09;8.00;;;1.52;;
11524;SDS011;5819;49.648;8.330;2023-12-22T03:22:37;7.22;;;1.45;;
11524;SDS011;5819;49.648;8.330;2023-12-22T03:25:05;10.35;;;1.73;;
11524;SDS011;5819;49.648;8.330;2023-12-22T03:27:33;5.10;;;1.42;;
11524;SDS011;5819;49.648;8.330;2023-12-22T03:30:03;7.63;;;1.52;;
11524;SDS011;5819;49.648;8.330;2023-12-22T03:32:31;5.60;;;1.35;;
11524;SDS011;5819;49.648;8.330;2023-12-22T03:34:59;9.38;;;1.50;;
11524;SDS011;5819;49.648;8.330;2023-12-22T03:37:27;6.65;;;1.20;;
11524;SDS011;5819;49.648;8.330;2023-12-22T03:39:56;6.15;;;1.25;;
11524;SDS011;5819;49.648;8.330;2023-12-22T03:42:24;3.55;;;1.40;;
11524;SDS011;5819;49.648;8.330;2023-12-22T03:44:51;4.57;;;1.20;;
11524;SDS011;5819;49.648;8.330;2023-12-22T03:47:21;4.10;;;1.15;;
11524;SDS011;5819;49.648;8.330;2023-12-22T03:49:49;4.35;;;1.35;;
11524;SDS011;5819;49.648;8.330;2023-12-22T03:52:16;5.15;;;1.42;;
11524;SDS011;5819;49.648;8.330;2023-12-22T03:54:45;5.93;;;1.27;;
11524;SDS011;5819;49.648;8.330;2023-12-22T03:57:13;5.22;;;1.27;;
11524;SDS011;5819;49.648;8.330;2023-12-22T03:59:41;5.72;;;1.30;;
11524;SDS011;5819;49.648;8.330;2023-12-22T04:02:10;9.43;;;1.83;;
11524;SDS011;5819;49.648;8.330;2023-12-22T04:04:39;4.38;;;1.30;;
11524;SDS011;5819;49.648;8.330;2023-12-22T04:07:07;7.07;;;1.77;;
11524;SDS011;5819;49.648;8.330;2023-12-22T04:09:36;10.00;;;2.38;;
11524;SDS011;5819;49.648;8.330;2023-12-22T04:12:04;7.43;;;1.50;;
11524;SDS011;5819;49.648;8.330;2023-12-22T04:14:32;4.15;;;1.05;;
11524;SDS011;5819;49.648;8.330;2023-12-22T04:17:00;3.70;;;1.42;;
11524;SDS011;5819;49.648;8.330;2023-12-22T04:19:28;2.85;;;1.17;;
11524;SDS011;5819;49.648;8.330;2023-12-22T04:21:57;8.48;;;1.65;;
11524;SDS011;5819;49.648;8.330;2023-12-22T04:24:25;6.35;;;1.17;;
11524;SDS011;5819;49.648;8.330;2023-12-22T04:26:53;3.50;;;1.10;;
11524;SDS011;5819;49.648;8.330;2023-12-22T04:29:21;3.78;;;1.05;;
11524;SDS011;5819;49.648;8.330;2023-12-22T04:31:49;5.07;;;1.23;;
11524;SDS011;5819;49.648;8.330;2023-12-22T04:34:16;6.40;;;1.60;;
11524;SDS011;5819;49.648;8.330;2023-12-22T04:36:44;3.50;;;0.98;;
11524;SDS011;5819;49.648;8.330;2023-12-22T04:39:15;4.63;;;1.35;;
11524;SDS011;5819;49.648;8.330;2023-12-22T04:41:42;4.53;;;1.35;;
11524;SDS011;5819;49.648;8.330;2023-12-22T04:44:10;6.00;;;1.60;;
11524;SDS011;5819;49.648;8.330;2023-12-22T04:46:38;3.85;;;1.10;;
11524;SDS011;5819;49.648;8.330;2023-12-22T04:49:06;9.15;;;1.30;;
11524;SDS011;5819;49.648;8.330;2023-12-22T04:51:34;3.90;;;2.08;;
11524;SDS011;5819;49.648;8.330;2023-12-22T04:54:01;5.63;;;1.45;;
11524;SDS011;5819;49.648;8.330;2023-12-22T04:56:31;5.25;;;1.35;;
11524;SDS011;5819;49.648;8.330;2023-12-22T04:58:59;6.43;;;1.77;;
11524;SDS011;5819;49.648;8.330;2023-12-22T05:01:28;5.68;;;1.20;;
11524;SDS011;5819;49.648;8.330;2023-12-22T05:03:56;5.30;;;1.17;;
11524;SDS011;5819;49.648;8.330;2023-12-22T05:06:23;2.70;;;0.77;;
11524;SDS011;5819;49.648;8.330;2023-12-22T05:08:51;1.85;;;0.50;;
11524;SDS011;5819;49.648;8.330;2023-12-22T05:11:19;1.17;;;0.45;;
11524;SDS011;5819;49.648;8.330;2023-12-22T05:13:48;2.83;;;0.73;;
11524;SDS011;5819;49.648;8.330;2023-12-22T05:16:16;1.88;;;0.45;;
11524;SDS011;5819;49.648;8.330;2023-12-22T05:18:44;3.03;;;0.80;;
11524;SDS011;5819;49.648;8.330;2023-12-22T05:21:12;1.95;;;0.60;;
11524;SDS011;5819;49.648;8.330;2023-12-22T05:23:41;2.65;;;0.70;;
11524;SDS011;5819;49.648;8.330;2023-12-22T05:26:09;3.72;;;0.70;;
11524;SDS011;5819;49.648;8.330;2023-12-22T05:28:37;3.35;;;0.60;;
11524;SDS011;5819;49.648;8.330;2023-12-22T05:31:06;2.78;;;0.70;;
11524;SDS011;5819;49.648;8.330;2023-12-22T05:33:34;2.53;;;0.75;;
11524;SDS011;5819;49.648;8.330;2023-12-22T05:36:03;4.22;;;1.15;;
11524;SDS011;5819;49.648;8.330;2023-12-22T05:38:32;2.33;;;0.75;;
11524;SDS011;5819;49.648;8.330;2023-12-22T05:40:59;3.50;;;0.80;;
11524;SDS011;5819;49.648;8.330;2023-12-22T05:43:28;5.35;;;0.65;;
11524;SDS011;5819;49.648;8.330;2023-12-22T05:45:56;2.55;;;1.05;;
11524;SDS011;5819;49.648;8.330;2023-12-22T05:48:26;5.85;;;1.10;;
11524;SDS011;5819;49.648;8.330;2023-12-22T05:50:55;5.47;;;1.33;;
11524;SDS011;5819;49.648;8.330;2023-12-22T05:53:24;6.78;;;1.30;;
11524;SDS011;5819;49.648;8.330;2023-12-22T05:55:51;6.43;;;1.60;;
11524;SDS011;5819;49.648;8.330;2023-12-22T05:58:19;7.47;;;1.35;;
11524;SDS011;5819;49.648;8.330;2023-12-22T06:00:47;5.13;;;1.35;;
11524;SDS011;5819;49.648;8.330;2023-12-22T06:03:15;8.88;;;1.50;;
11524;SDS011;5819;49.648;8.330;2023-12-22T06:05:45;8.23;;;1.65;;
11524;SDS011;5819;49.648;8.330;2023-12-22T06:08:14;5.28;;;1.48;;
11524;SDS011;5819;49.648;8.330;2023-12-22T06:10:42;5.03;;;1.15;;
11524;SDS011;5819;49.648;8.330;2023-12-22T06:13:11;7.55;;;2.08;;
11524;SDS011;5819;49.648;8.330;2023-12-22T06:15:39;11.10;;;2.20;;
11524;SDS011;5819;49.648;8.330;2023-12-22T06:18:07;10.05;;;2.00;;
11524;SDS011;5819;49.648;8.330;2023-12-22T06:20:35;7.45;;;1.83;;
11524;SDS011;5819;49.648;8.330;2023-12-22T06:23:05;8.70;;;1.63;;
11524;SDS011;5819;49.648;8.330;2023-12-22T06:25:33;12.73;;;2.60;;
11524;SDS011;5819;49.648;8.330;2023-12-22T06:28:01;9.10;;;2.13;;
11524;SDS011;5819;49.648;8.330;2023-12-22T06:30:30;5.28;;;1.45;;
11524;SDS011;5819;49.648;8.330;2023-12-22T06:32:58;7.50;;;2.10;;
11524;SDS011;5819;49.648;8.330;2023-12-22T06:35:28;8.40;;;1.80;;
11524;SDS011;5819;49.648;8.330;2023-12-22T06:37:57;8.07;;;1.67;;
11524;SDS011;5819;49.648;8.330;2023-12-22T06:40:31;11.27;;;2.45;;
11524;SDS011;5819;49.648;8.330;2023-12-22T06:43:00;6.75;;;1.77;;
11524;SDS011;5819;49.648;8.330;2023-12-22T06:45:28;7.50;;;1.70;;
11524;SDS011;5819;49.648;8.330;2023-12-22T06:47:56;6.07;;;2.17;;
11524;SDS011;5819;49.648;8.330;2023-12-22T06:50:24;6.70;;;1.65;;
11524;SDS011;5819;49.648;8.330;2023-12-22T06:52:52;5.70;;;1.50;;
11524;SDS011;5819;49.648;8.330;2023-12-22T06:55:19;10.05;;;1.83;;
11524;SDS011;5819;49.648;8.330;2023-12-22T06:57:49;8.55;;;2.42;;
11524;SDS011;5819;49.648;8.330;2023-12-22T07:00:17;7.50;;;1.85;;
11524;SDS011;5819;49.648;8.330;2023-12-22T07:02:45;8.07;;;1.90;;
11524;SDS011;5819;49.648;8.330;2023-12-22T07:05:29;9.40;;;1.65;;
11524;SDS011;5819;49.648;8.330;2023-12-22T07:07:57;5.38;;;1.65;;
11524;SDS011;5819;49.648;8.330;2023-12-22T07:10:25;5.38;;;1.48;;
11524;SDS011;5819;49.648;8.330;2023-12-22T07:12:55;8.07;;;1.80;;
11524;SDS011;5819;49.648;8.330;2023-12-22T07:15:23;4.85;;;1.52;;
11524;SDS011;5819;49.648;8.330;2023-12-22T07:17:50;5.90;;;1.38;;
11524;SDS011;5819;49.648;8.330;2023-12-22T07:20:19;5.22;;;1.38;;
11524;SDS011;5819;49.648;8.330;2023-12-22T07:22:47;3.45;;;1.42;;
11524;SDS011;5819;49.648;8.330;2023-12-22T07:25:15;5.15;;;1.15;;
11524;SDS011;5819;49.648;8.330;2023-12-22T07:27:45;3.88;;;1.40;;
11524;SDS011;5819;49.648;8.330;2023-12-22T07:30:15;4.32;;;1.42;;
11524;SDS011;5819;49.648;8.330;2023-12-22T07:32:43;5.10;;;1.42;;
11524;SDS011;5819;49.648;8.330;2023-12-22T07:35:14;5.68;;;1.10;;
11524;SDS011;5819;49.648;8.330;2023-12-22T07:37:44;3.80;;;1.00;;
11524;SDS011;5819;49.648;8.330;2023-12-22T07:40:12;6.82;;;1.55;;
11524;SDS011;5819;49.648;8.330;2023-12-22T07:42:40;5.45;;;0.90;;
11524;SDS011;5819;49.648;8.330;2023-12-22T07:45:08;2.70;;;0.80;;
11524;SDS011;5819;49.648;8.330;2023-12-22T07:47:41;2.92;;;0.52;;
11524;SDS011;5819;49.648;8.330;2023-12-22T07:50:09;4.18;;;0.75;;
11524;SDS011;5819;49.648;8.330;2023-12-22T07:52:37;1.92;;;0.85;;
11524;SDS011;5819;49.648;8.330;2023-12-22T07:55:07;4.82;;;0.82;;
11524;SDS011;5819;49.648;8.330;2023-12-22T07:57:37;3.72;;;1.00;;
11524;SDS011;5819;49.648;8.330;2023-12-22T08:00:05;3.28;;;1.40;;
11524;SDS011;5819;49.648;8.330;2023-12-22T08:02:38;2.35;;;0.70;;
11524;SDS011;5819;49.648;8.330;2023-12-22T08:05:08;3.88;;;0.70;;
11524;SDS011;5819;49.648;8.330;2023-12-22T08:07:36;2.10;;;0.60;;
11524;SDS011;5819;49.648;8.330;2023-12-22T08:10:04;2.53;;;0.43;;
11524;SDS011;5819;49.648;8.330;2023-12-22T08:12:32;5.03;;;1.08;;
11524;SDS011;5819;49.648;8.330;2023-12-22T08:15:01;1.50;;;0.50;;
11524;SDS011;5819;49.648;8.330;2023-12-22T08:17:29;1.90;;;0.45;;
11524;SDS011;5819;49.648;8.330;2023-12-22T08:19:57;1.77;;;1.05;;
11524;SDS011;5819;49.648;8.330;2023-12-22T08:22:38;2.28;;;1.13;;
11524;SDS011;5819;49.648;8.330;2023-12-22T08:25:11;1.88;;;0.60;;
11524;SDS011;5819;49.648;8.330;2023-12-22T08:27:39;1.15;;;0.57;;
11524;SDS011;5819;49.648;8.330;2023-12-22T08:30:08;2.25;;;0.60;;
11524;SDS011;5819;49.648;8.330;2023-12-22T08:32:36;3.35;;;0.70;;
11524;SDS011;5819;49.648;8.330;2023-12-22T08:35:05;5.45;;;0.85;;
11524;SDS011;5819;49.648;8.330;2023-12-22T08:37:34;4.88;;;0.88;;
11524;SDS011;5819;49.648;8.330;2023-12-22T08:40:05;2.10;;;0.95;;
11524;SDS011;5819;49.648;8.330;2023-12-22T08:42:33;4.30;;;1.50;;
11524;SDS011;5819;49.648;8.330;2023-12-22T08:45:01;6.22;;;1.15;;
11524;SDS011;5819;49.648;8.330;2023-12-22T08:47:31;7.13;;;1.55;;
11524;SDS011;5819;49.648;8.330;2023-12-22T08:50:00;4.95;;;1.50;;
11524;SDS011;5819;49.648;8.330;2023-12-22T08:52:30;5.85;;;1.42;;
11524;SDS011;5819;49.648;8.330;2023-12-22T08:54:58;5.57;;;1.48;;
11524;SDS011;5819;49.648;8.330;2023-12-22T08:57:27;5.57;;;1.60;;
11524;SDS011;5819;49.648;8.330;2023-12-22T08:59:55;8.77;;;1.60;;
11524;SDS011;5819;49.648;8.330;2023-12-22T09:02:23;7.25;;;1.70;;
11524;SDS011;5819;49.648;8.330;2023-12-22T09:04:52;8.88;;;2.35;;
11524;SDS011;5819;49.648;8.330;2023-12-22T09:07:20;9.35;;;1.95;;
11524;SDS011;5819;49.648;8.330;2023-12-22T09:09:49;9.55;;;1.98;;
11524;SDS011;5819;49.648;8.330;2023-12-22T09:12:16;6.22;;;1.75;;
11524;SDS011;5819;49.648;8.330;2023-12-22T09:14:45;11.57;;;2.20;;
11524;SDS011;5819;49.648;8.330;2023-12-22T09:17:13;13.40;;;3.55;;
11524;SDS011;5819;49.648;8.330;2023-12-22T09:19:43;11.05;;;2.17;;
11524;SDS011;5819;49.648;8.330;2023-12-22T09:22:11;11.02;;;2.55;;
11524;SDS011;5819;49.648;8.330;2023-12-22T09:24:38;15.32;;;2.65;;
11524;SDS011;5819;49.648;8.330;2023-12-22T09:27:07;12.75;;;2.40;;
11524;SDS011;5819;49.648;8.330;2023-12-22T09:29:35;10.32;;;3.20;;
11524;SDS011;5819;49.648;8.330;2023-12-22T09:32:05;15.45;;;3.17;;
11524;SDS011;5819;49.648;8.330;2023-12-22T09:34:33;9.43;;;2.65;;
11524;SDS011;5819;49.648;8.330;2023-12-22T09:37:01;11.60;;;2.70;;
11524;SDS011;5819;49.648;8.330;2023-12-22T09:39:29;14.32;;;3.10;;
11524;SDS011;5819;49.648;8.330;2023-12-22T09:41:57;13.68;;;2.85;;
11524;SDS011;5819;49.648;8.330;2023-12-22T09:44:25;13.05;;;3.10;;
11524;SDS011;5819;49.648;8.330;2023-12-22T09:47:01;14.45;;;3.20;;
11524;SDS011;5819;49.648;8.330;2023-12-22T09:49:33;12.10;;;3.70;;
11524;SDS011;5819;49.648;8.330;2023-12-22T09:52:02;12.00;;;2.92;;
11524;SDS011;5819;49.648;8.330;2023-12-22T09:54:32;15.10;;;3.10;;
11524;SDS011;5819;49.648;8.330;2023-12-22T09:57:00;13.18;;;2.95;;
11524;SDS011;5819;49.648;8.330;2023-12-22T09:59:45;13.07;;;3.42;;
11524;SDS011;5819;49.648;8.330;2023-12-22T10:02:17;12.35;;;2.90;;
11524;SDS011;5819;49.648;8.330;2023-12-22T10:04:45;22.35;;;4.80;;
11524;SDS011;5819;49.648;8.330;2023-12-22T10:07:14;18.08;;;4.88;;
11524;SDS011;5819;49.648;8.330;2023-12-22T10:09:44;18.33;;;3.85;;
11524;SDS011;5819;49.648;8.330;2023-12-22T10:12:14;16.25;;;3.72;;
11524;SDS011;5819;49.648;8.330;2023-12-22T10:14:42;14.65;;;3.38;;
11524;SDS011;5819;49.648;8.330;2023-12-22T10:17:10;13.55;;;2.70;;
11524;SDS011;5819;49.648;8.330;2023-12-22T10:19:39;17.60;;;3.88;;
11524;SDS011;5819;49.648;8.330;2023-12-22T10:22:07;21.95;;;3.78;;
11524;SDS011;5819;49.648;8.330;2023-12-22T10:24:39;11.48;;;2.97;;
11524;SDS011;5819;49.648;8.330;2023-12-22T10:27:10;13.38;;;3.45;;
11524;SDS011;5819;49.648;8.330;2023-12-22T10:29:39;12.57;;;3.25;;
11524;SDS011;5819;49.648;8.330;2023-12-22T10:32:07;14.48;;;3.50;;
11524;SDS011;5819;49.648;8.330;2023-12-22T10:34:36;18.40;;;4.25;;
11524;SDS011;5819;49.648;8.330;2023-12-22T10:37:06;13.57;;;3.67;;
11524;SDS011;5819;49.648;8.330;2023-12-22T10:39:35;20.15;;;3.83;;
11524;SDS011;5819;49.648;8.330;2023-12-22T10:42:04;15.50;;;3.70;;
11524;SDS011;5819;49.648;8.330;2023-12-22T10:44:32;17.00;;;4.00;;
11524;SDS011;5819;49.648;8.330;2023-12-22T10:47:00;13.65;;;3.42;;
11524;SDS011;5819;49.648;8.330;2023-12-22T10:49:30;15.23;;;3.60;;
11524;SDS011;5819;49.648;8.330;2023-12-22T10:51:58;12.50;;;3.33;;
11524;SDS011;5819;49.648;8.330;2023-12-22T10:54:28;12.60;;;3.70;;
11524;SDS011;5819;49.648;8.330;2023-12-22T10:56:57;15.35;;;5.15;;
11524;SDS011;5819;49.648;8.330;2023-12-22T10:59:27;12.50;;;3.20;;
11524;SDS011;5819;49.648;8.330;2023-12-22T11:01:58;13.95;;;3.35;;
11524;SDS011;5819;49.648;8.330;2023-12-22T11:04:29;13.10;;;3.33;;
11524;SDS011;5819;49.648;8.330;2023-12-22T11:06:59;13.70;;;3.25;;
11524;SDS011;5819;49.648;8.330;2023-12-22T11:09:32;13.13;;;3.13;;
11524;SDS011;5819;49.648;8.330;2023-12-22T11:12:03;12.57;;;3.38;;
11524;SDS011;5819;49.648;8.330;2023-12-22T11:14:33;11.25;;;2.78;;
11524;SDS011;5819;49.648;8.330;2023-12-22T11:17:02;16.65;;;3.15;;
11524;SDS011;5819;49.648;8.330;2023-12-22T11:19:32;18.77;;;4.13;;
11524;SDS011;5819;49.648;8.330;2023-12-22T11:22:02;15.40;;;3.90;;
11524;SDS011;5819;49.648;8.330;2023-12-22T11:24:37;14.43;;;3.47;;
11524;SDS011;5819;49.648;8.330;2023-12-22T11:30:18;15.40;;;3.60;;
11524;SDS011;5819;49.648;8.330;2023-12-22T11:32:47;14.60;;;2.90;;
11524;SDS011;5819;49.648;8.330;2023-12-22T11:35:17;16.48;;;3.67;;
11524;SDS011;5819;49.648;8.330;2023-12-22T11:37:45;11.38;;;2.65;;
11524;SDS011;5819;49.648;8.330;2023-12-22T11:40:18;9.57;;;2.53;;
11524;SDS011;5819;49.648;8.330;2023-12-22T11:42:47;11.90;;;3.35;;
11524;SDS011;5819;49.648;8.330;2023-12-22T11:45:18;10.52;;;3.05;;
11524;SDS011;5819;49.648;8.330;2023-12-22T11:47:49;10.55;;;3.22;;
11524;SDS011;5819;49.648;8.330;2023-12-22T11:50:28;10.98;;;2.55;;
11524;SDS011;5819;49.648;8.330;2023-12-22T11:53:04;9.27;;;3.17;;
11524;SDS011;5819;49.648;8.330;2023-12-22T11:56:02;12.10;;;3.05;;
11524;SDS011;5819;49.648;8.330;2023-12-22T11:58:32;8.18;;;2.65;;
11524;SDS011;5819;49.648;8.330;2023-12-22T12:01:01;10.63;;;2.95;;
11524;SDS011;5819;49.648;8.330;2023-12-22T12:03:30;10.68;;;2.30;;
11524;SDS011;5819;49.648;8.330;2023-12-22T12:06:17;8.40;;;1.83;;
11524;SDS011;5819;49.648;8.330;2023-12-22T12:08:58;7.28;;;2.05;;
11524;SDS011;5819;49.648;8.330;2023-12-22T12:14:31;6.43;;;1.58;;
11524;SDS011;5819;49.648;8.330;2023-12-22T12:17:03;5.72;;;1.67;;
11524;SDS011;5819;49.648;8.330;2023-12-22T12:19:34;4.30;;;1.17;;
11524;SDS011;5819;49.648;8.330;2023-12-22T12:22:03;3.47;;;1.15;;
11524;SDS011;5819;49.648;8.330;2023-12-22T12:24:32;5.00;;;1.30;;
11524;SDS011;5819;49.648;8.330;2023-12-22T12:31:46;7.88;;;1.10;;
11524;SDS011;5819;49.648;8.330;2023-12-22T12:34:18;3.75;;;1.17;;
11524;SDS011;5819;49.648;8.330;2023-12-22T12:36:47;4.32;;;0.73;;
11524;SDS011;5819;49.648;8.330;2023-12-22T12:39:16;3.28;;;0.90;;
11524;SDS011;5819;49.648;8.330;2023-12-22T12:41:52;4.18;;;0.90;;
11524;SDS011;5819;49.648;8.330;2023-12-22T12:44:22;3.53;;;0.85;;
11524;SDS011;5819;49.648;8.330;2023-12-22T12:46:52;8.00;;;2.35;;
11524;SDS011;5819;49.648;8.330;2023-12-22T12:49:20;3.97;;;1.40;;
11524;SDS011;5819;49.648;8.330;2023-12-22T12:51:53;3.65;;;1.17;;
11524;SDS011;5819;49.648;8.330;2023-12-22T12:54:33;2.45;;;0.80;;
11524;SDS011;5819;49.648;8.330;2023-12-22T12:58:19;3.88;;;1.10;;
11524;SDS011;5819;49.648;8.330;2023-12-22T13:00:47;2.35;;;0.70;;
11524;SDS011;5819;49.648;8.330;2023-12-22T13:03:16;3.03;;;1.02;;
11524;SDS011;5819;49.648;8.330;2023-12-22T13:05:44;2.70;;;0.65;;
11524;SDS011;5819;49.648;8.330;2023-12-22T13:08:13;1.80;;;0.88;;
11524;SDS011;5819;49.648;8.330;2023-12-22T13:10:41;5.80;;;2.83;;
11524;SDS011;5819;49.648;8.330;2023-12-22T13:13:09;2.92;;;0.98;;
11524;SDS011;5819;49.648;8.330;2023-12-22T13:15:39;3.13;;;1.38;;
11524;SDS011;5819;49.648;8.330;2023-12-22T13:18:08;5.90;;;4.13;;
11524;SDS011;5819;49.648;8.330;2023-12-22T13:20:38;9.40;;;6.55;;
11524;SDS011;5819;49.648;8.330;2023-12-22T13:23:06;5.10;;;3.72;;
11524;SDS011;5819;49.648;8.330;2023-12-22T13:25:37;4.63;;;2.88;;
11524;SDS011;5819;49.648;8.330;2023-12-22T13:28:06;1.83;;;1.05;;
11524;SDS011;5819;49.648;8.330;2023-12-22T13:30:34;1.55;;;0.60;;
11524;SDS011;5819;49.648;8.330;2023-12-22T13:33:02;0.57;;;0.40;;
11524;SDS011;5819;49.648;8.330;2023-12-22T13:35:31;0.45;;;0.38;;
11524;SDS011;5819;49.648;8.330;2023-12-22T13:38:06;1.38;;;0.40;;
11524;SDS011;5819;49.648;8.330;2023-12-22T13:40:34;1.23;;;0.50;;
11524;SDS011;5819;49.648;8.330;2023-12-22T13:43:04;1.38;;;0.38;;
11524;SDS011;5819;49.648;8.330;2023-12-22T13:45:34;0.50;;;0.32;;
11524;SDS011;5819;49.648;8.330;2023-12-22T13:48:02;1.38;;;0.38;;
11524;SDS011;5819;49.648;8.330;2023-12-22T13:50:31;0.95;;;0.30;;
11524;SDS011;5819;49.648;8.330;2023-12-22T13:53:08;0.68;;;0.28;;
11524;SDS011;5819;49.648;8.330;2023-12-22T13:55:36;1.58;;;0.47;;
11524;SDS011;5819;49.648;8.330;2023-12-22T13:58:06;0.30;;;0.20;;
11524;SDS011;5819;49.648;8.330;2023-12-22T14:00:35;0.68;;;0.40;;
11524;SDS011;5819;49.648;8.330;2023-12-22T14:03:04;0.85;;;0.40;;
11524;SDS011;5819;49.648;8.330;2023-12-22T14:05:32;1.00;;;0.60;;
11524;SDS011;5819;49.648;8.330;2023-12-22T14:08:01;2.47;;;1.40;;
11524;SDS011;5819;49.648;8.330;2023-12-22T14:10:31;1.10;;;0.60;;
11524;SDS011;5819;49.648;8.330;2023-12-22T14:12:59;0.93;;;0.63;;
11524;SDS011;5819;49.648;8.330;2023-12-22T14:15:26;0.50;;;0.40;;
11524;SDS011;5819;49.648;8.330;2023-12-22T14:18:07;0.73;;;0.30;;
11524;SDS011;5819;49.648;8.330;2023-12-22T14:20:35;1.00;;;0.80;;
11524;SDS011;5819;49.648;8.330;2023-12-22T14:23:03;4.15;;;2.80;;
11524;SDS011;5819;49.648;8.330;2023-12-22T14:25:32;1.42;;;1.17;;
11524;SDS011;5819;49.648;8.330;2023-12-22T14:28:00;1.10;;;0.65;;
11524;SDS011;5819;49.648;8.330;2023-12-22T14:30:28;1.73;;;0.80;;
11524;SDS011;5819;49.648;8.330;2023-12-22T14:32:56;1.30;;;0.60;;
11524;SDS011;5819;49.648;8.330;2023-12-22T14:35:24;0.50;;;0.40;;
11524;SDS011;5819;49.648;8.330;2023-12-22T14:37:52;2.85;;;0.47;;
11524;SDS011;5819;49.648;8.330;2023-12-22T14:40:20;0.38;;;0.22;;
11524;SDS011;5819;49.648;8.330;2023-12-22T14:42:51;1.45;;;0.85;;
11524;SDS011;5819;49.648;8.330;2023-12-22T14:45:20;0.80;;;0.40;;
11524;SDS011;5819;49.648;8.330;2023-12-22T14:47:49;0.70;;;0.35;;
11524;SDS011;5819;49.648;8.330;2023-12-22T14:50:18;0.80;;;0.30;;
11524;SDS011;5819;49.648;8.330;2023-12-22T14:52:47;0.93;;;0.40;;
11524;SDS011;5819;49.648;8.330;2023-12-22T14:55:15;0.82;;;0.57;;
11524;SDS011;5819;49.648;8.330;2023-12-22T14:57:45;1.73;;;0.80;;
11524;SDS011;5819;49.648;8.330;2023-12-22T15:00:16;4.28;;;2.85;;
11524;SDS011;5819;49.648;8.330;2023-12-22T15:02:45;2.20;;;1.73;;
11524;SDS011;5819;49.648;8.330;2023-12-22T15:05:14;2.50;;;0.75;;
11524;SDS011;5819;49.648;8.330;2023-12-22T15:07:44;0.77;;;0.57;;
11524;SDS011;5819;49.648;8.330;2023-12-22T15:10:14;2.00;;;0.95;;
11524;SDS011;5819;49.648;8.330;2023-12-22T15:12:42;1.40;;;1.00;;
11524;SDS011;5819;49.648;8.330;2023-12-22T15:15:11;1.52;;;1.00;;
11524;SDS011;5819;49.648;8.330;2023-12-22T15:17:40;0.93;;;0.47;;
11524;SDS011;5819;49.648;8.330;2023-12-22T15:20:09;0.80;;;0.70;;
11524;SDS011;5819;49.648;8.330;2023-12-22T15:22:44;0.90;;;0.60;;